Time;durP1;ratioP1;P1;durP2;ratioP2;P2;SDS_P1;SDS_P2;PMS_P1;PMS_P2;Temp;Humidity;BMP_temperature;BMP_pressure;BME280_temperature;BME280_humidity;BME280_pressure;Samples;Min_cycle;Max_cycle;Signal;HPM_P1;HPM_P2
2023/10/03 00:00:24;;;;;;;0.85;0.82;;;;;;;;;;1025700;28;20030;-72
2023/10/03 00:00:55;;;;;;;1.02;0.75;;;;;;;;;;1026243;28;20031;-72
2023/10/03 00:01:25;;;;;;;2.08;1.58;;;;;;;;;;1024704;28;20426;-72
2023/10/03 00:01:55;;;;;;;0.98;0.95;;;;;;;;;;1020993;29;20035;-72
2023/10/03 00:02:27;;;;;;;0.63;0.63;;;;;;;;;;1021537;28;20019;-72
2023/10/03 00:02:58;;;;;;;1.65;1.55;;;;;;;;;;1021803;29;20066;-72
2023/10/03 00:03:29;;;;;;;0.65;0.60;;;;;;;;;;1022660;28;20028;-72
2023/10/03 00:03:59;;;;;;;0.20;0.20;;;;;;;;;;1023483;28;20022;-72
2023/10/03 00:04:30;;;;;;;0.93;0.88;;;;;;;;;;1021402;29;20119;-72
2023/10/03 00:05:01;;;;;;;0.70;0.25;;;;;;;;;;1021529;29;20518;-72
2023/10/03 00:05:32;;;;;;;0.20;0.20;;;;;;;;;;1021977;29;20035;-72
2023/10/03 00:06:03;;;;;;;0.20;0.20;;;;;;;;;;1025169;28;20031;-72
2023/10/03 00:06:33;;;;;;;0.10;0.10;;;;;;;;;;1026217;28;20426;-72
2023/10/03 00:07:04;;;;;;;0.40;0.40;;;;;;;;;;1024691;28;20494;-72
2023/10/03 00:07:34;;;;;;;0.20;0.20;;;;;;;;;;1025468;28;20023;-72
2023/10/03 00:08:05;;;;;;;1.60;1.50;;;;;;;;;;1025327;28;20041;-72
2023/10/03 00:08:35;;;;;;;1.45;0.98;;;;;;;;;;1023544;29;21146;-72
2023/10/03 00:09:06;;;;;;;0.30;0.30;;;;;;;;;;1019384;29;20027;-72
2023/10/03 00:09:37;;;;;;;3.03;0.35;;;;;;;;;;1019458;29;20062;-72
2023/10/03 00:10:08;;;;;;;0.10;0.10;;;;;;;;;;1019501;29;20095;-72
2023/10/03 00:10:39;;;;;;;5.90;0.68;;;;;;;;;;1023435;28;20114;-72
2023/10/03 00:11:15;;;;;;;0.20;0.20;;;;;;;;;;1025080;28;20027;-72
2023/10/03 00:11:46;;;;;;;3.40;0.57;;;;;;;;;;1017063;29;20388;-72
2023/10/03 00:12:17;;;;;;;1.83;1.73;;;;;;;;;;1018438;29;20064;-72
2023/10/03 00:12:48;;;;;;;0.05;0.05;;;;;;;;;;1021326;29;20055;-72
2023/10/03 00:13:19;;;;;;;1.05;0.98;;;;;;;;;;1021010;29;20527;-72
2023/10/03 00:13:50;;;;;;;1.27;1.17;;;;;;;;;;1025545;28;20054;-72
2023/10/03 00:14:20;;;;;;;1.50;1.40;;;;;;;;;;1025321;28;20390;-72
2023/10/03 00:14:51;;;;;;;1.55;1.45;;;;;;;;;;1025289;28;20114;-72
2023/10/03 00:15:24;;;;;;;1.85;0.20;;;;;;;;;;1025094;28;20399;-72
2023/10/03 00:15:54;;;;;;;0.40;0.30;;;;;;;;;;1025785;28;20530;-72
2023/10/03 00:16:24;;;;;;;2.45;1.65;;;;;;;;;;1025342;28;20022;-72
2023/10/03 00:16:55;;;;;;;0.25;0.25;;;;;;;;;;1025782;28;20490;-72
2023/10/03 00:17:25;;;;;;;0.50;0.50;;;;;;;;;;1025275;28;20026;-72
2023/10/03 00:17:56;;;;;;;2.92;1.75;;;;;;;;;;1025568;28;20051;-72
2023/10/03 00:18:27;;;;;;;0.38;0.38;;;;;;;;;;1022670;29;20106;-72
2023/10/03 00:18:58;;;;;;;0.20;0.20;;;;;;;;;;1025622;28;20038;-72
2023/10/03 00:19:28;;;;;;;0.30;0.30;;;;;;;;;;1024760;28;20065;-72
2023/10/03 00:19:59;;;;;;;0.28;0.28;;;;;;;;;;1021052;29;20167;-72
2023/10/03 00:20:29;;;;;;;0.55;0.55;;;;;;;;;;1020738;29;20027;-72
2023/10/03 00:21:00;;;;;;;8.27;0.80;;;;;;;;;;1021256;29;20031;-72
2023/10/03 00:21:30;;;;;;;0.30;0.20;;;;;;;;;;1021171;28;20027;-72
2023/10/03 00:22:01;;;;;;;0.20;0.20;;;;;;;;;;1021331;29;20482;-72
2023/10/03 00:22:31;;;;;;;0.35;0.35;;;;;;;;;;1021214;29;20027;-72
2023/10/03 00:23:02;;;;;;;0.40;0.40;;;;;;;;;;1021153;29;20114;-72
2023/10/03 00:23:32;;;;;;;0.30;0.30;;;;;;;;;;1021217;29;20047;-72
2023/10/03 00:24:05;;;;;;;0.80;0.80;;;;;;;;;;1023497;28;20020;-72
2023/10/03 00:24:35;;;;;;;0.57;0.50;;;;;;;;;;1025546;28;20035;-72
2023/10/03 00:25:07;;;;;;;1.55;1.35;;;;;;;;;;1022770;29;20114;-72
2023/10/03 00:25:38;;;;;;;9.27;0.80;;;;;;;;;;1023134;28;20134;-72
2023/10/03 00:26:13;;;;;;;1.05;1.02;;;;;;;;;;1022440;29;20025;-72
2023/10/03 00:26:44;;;;;;;2.15;1.55;;;;;;;;;;1019474;29;20480;-72
2023/10/03 00:27:16;;;;;;;1.10;1.02;;;;;;;;;;1022109;29;20058;-72
2023/10/03 00:27:49;;;;;;;1.85;1.75;;;;;;;;;;1021799;28;20027;-72
2023/10/03 00:28:20;;;;;;;0.40;0.40;;;;;;;;;;1023480;28;21369;-72
2023/10/03 00:28:51;;;;;;;0.17;0.17;;;;;;;;;;1021368;29;20586;-72
2023/10/03 00:29:26;;;;;;;2.90;1.38;;;;;;;;;;1020809;29;20038;-72
2023/10/03 00:29:57;;;;;;;0.10;0.10;;;;;;;;;;1018318;29;20024;-72
2023/10/03 00:30:29;;;;;;;0.90;0.90;;;;;;;;;;1020353;29;20023;-72
2023/10/03 00:31:00;;;;;;;5.15;1.98;;;;;;;;;;1021406;29;20419;-72
2023/10/03 00:31:30;;;;;;;0.98;0.98;;;;;;;;;;1019128;29;20019;-72
2023/10/03 00:32:01;;;;;;;0.20;0.15;;;;;;;;;;1023252;29;20019;-72
2023/10/03 00:32:32;;;;;;;0.95;0.95;;;;;;;;;;1019238;29;20051;-72
2023/10/03 00:33:02;;;;;;;1.83;0.88;;;;;;;;;;1019368;29;20023;-72
2023/10/03 00:33:33;;;;;;;0.40;0.40;;;;;;;;;;1022173;29;20031;-72
2023/10/03 00:34:03;;;;;;;1.17;0.63;;;;;;;;;;1021182;29;20067;-72
2023/10/03 00:34:36;;;;;;;0.30;0.30;;;;;;;;;;1023373;29;20089;-72
2023/10/03 00:35:08;;;;;;;0.28;0.28;;;;;;;;;;1025493;28;20422;-72
2023/10/03 00:35:40;;;;;;;0.90;0.90;;;;;;;;;;1024197;28;20075;-72
2023/10/03 00:36:18;;;;;;;0.30;0.30;;;;;;;;;;1026064;28;20023;-72
2023/10/03 00:36:50;;;;;;;0.20;0.20;;;;;;;;;;1024805;28;20019;-72
2023/10/03 00:37:20;;;;;;;0.13;0.13;;;;;;;;;;1024659;28;20432;-72
2023/10/03 00:37:52;;;;;;;0.30;0.30;;;;;;;;;;1025073;28;20019;-72
2023/10/03 00:38:22;;;;;;;0.43;0.43;;;;;;;;;;1024791;28;20024;-72
2023/10/03 00:38:53;;;;;;;0.52;0.52;;;;;;;;;;1023083;29;20391;-72
2023/10/03 00:39:23;;;;;;;6.20;3.13;;;;;;;;;;1023070;29;20121;-72
2023/10/03 00:39:54;;;;;;;1.00;1.00;;;;;;;;;;1023392;29;20098;-72
2023/10/03 00:40:55;;;;;;;0.30;0.30;;;;;;;;;;1026329;28;20023;-72
2023/10/03 00:41:26;;;;;;;0.70;0.70;;;;;;;;;;1023542;28;20506;-72
2023/10/03 00:41:56;;;;;;;0.98;0.98;;;;;;;;;;1025653;28;20038;-72
2023/10/03 00:42:27;;;;;;;0.20;0.20;;;;;;;;;;1025356;28;20031;-72
2023/10/03 00:42:59;;;;;;;1.95;1.38;;;;;;;;;;1024968;28;20025;-72
2023/10/03 00:43:29;;;;;;;2.13;1.05;;;;;;;;;;1025072;28;20519;-72
2023/10/03 00:44:04;;;;;;;0.93;0.40;;;;;;;;;;1025057;28;20026;-72
2023/10/03 00:44:34;;;;;;;0.03;0.03;;;;;;;;;;1024955;28;20034;-72
2023/10/03 00:45:08;;;;;;;1.35;1.27;;;;;;;;;;1023276;29;20027;-72
2023/10/03 00:45:39;;;;;;;5.70;1.27;;;;;;;;;;1022182;28;20050;-72
2023/10/03 00:46:10;;;;;;;2.03;1.83;;;;;;;;;;1023224;28;20037;-72
2023/10/03 00:46:40;;;;;;;0.65;0.65;;;;;;;;;;1024955;28;20161;-72
2023/10/03 00:47:11;;;;;;;3.50;1.95;;;;;;;;;;1024768;28;20042;-72
2023/10/03 00:47:41;;;;;;;0.98;0.88;;;;;;;;;;1024060;28;20023;-72
2023/10/03 00:48:12;;;;;;;1.85;1.60;;;;;;;;;;1024367;28;20061;-72
2023/10/03 00:48:43;;;;;;;2.25;1.55;;;;;;;;;;1024104;28;20027;-72
2023/10/03 00:49:14;;;;;;;1.77;1.40;;;;;;;;;;1023179;29;20601;-72
2023/10/03 00:49:45;;;;;;;0.85;0.80;;;;;;;;;;1023190;28;20079;-72
2023/10/03 00:50:20;;;;;;;1.15;1.05;;;;;;;;;;1025697;28;20070;-72
2023/10/03 00:50:53;;;;;;;1.02;0.93;;;;;;;;;;1026206;28;20518;-72
2023/10/03 00:51:25;;;;;;;1.00;0.63;;;;;;;;;;1024921;28;20034;-72
2023/10/03 00:51:56;;;;;;;0.15;0.15;;;;;;;;;;1022697;29;20119;-72
2023/10/03 00:52:26;;;;;;;2.20;0.88;;;;;;;;;;1022129;29;20026;-72
2023/10/03 00:52:58;;;;;;;0.55;0.55;;;;;;;;;;1023676;28;20122;-72
2023/10/03 00:53:32;;;;;;;0.50;0.50;;;;;;;;;;1020565;29;20034;-72
2023/10/03 00:54:03;;;;;;;0.35;0.35;;;;;;;;;;1017043;29;20020;-72
2023/10/03 00:54:33;;;;;;;0.45;0.45;;;;;;;;;;1017075;29;20060;-72
2023/10/03 00:55:04;;;;;;;0.10;0.10;;;;;;;;;;1017621;29;20028;-72
2023/10/03 00:55:35;;;;;;;1.08;1.00;;;;;;;;;;1021696;29;20094;-72
2023/10/03 00:56:11;;;;;;;0.88;0.82;;;;;;;;;;1025177;28;20065;-72
2023/10/03 00:56:43;;;;;;;0.77;0.75;;;;;;;;;;1025434;28;20117;-72
2023/10/03 00:57:15;;;;;;;0.08;0.08;;;;;;;;;;1019109;29;20071;-72
2023/10/03 00:57:45;;;;;;;0.43;0.43;;;;;;;;;;1015261;29;20020;-72
2023/10/03 00:58:27;;;;;;;1.15;1.05;;;;;;;;;;1015384;29;20040;-72
2023/10/03 00:58:58;;;;;;;2.28;1.55;;;;;;;;;;1018912;29;20016;-72
2023/10/03 00:59:28;;;;;;;3.72;0.82;;;;;;;;;;1022956;28;20023;-72
2023/10/03 00:59:59;;;;;;;0.30;0.30;;;;;;;;;;1024755;28;20079;-72
2023/10/03 01:00:31;;;;;;;0.77;0.77;;;;;;;;;;1025038;28;20110;-72
2023/10/03 01:01:03;;;;;;;1.10;1.00;;;;;;;;;;1024653;28;20023;-72
2023/10/03 01:01:35;;;;;;;0.30;0.30;;;;;;;;;;1025504;28;20023;-72
2023/10/03 01:02:06;;;;;;;0.55;0.50;;;;;;;;;;1025767;28;20038;-72
2023/10/03 01:02:45;;;;;;;0.28;0.28;;;;;;;;;;1025712;28;20029;-73
2023/10/03 01:03:32;;;;;;;0.45;0.45;;;;;;;;;;1024686;28;20039;-72
2023/10/03 01:04:04;;;;;;;0.20;0.20;;;;;;;;;;1025343;28;20026;-74
2023/10/03 01:04:36;;;;;;;0.10;0.10;;;;;;;;;;1025491;28;20400;-72
2023/10/03 01:05:08;;;;;;;0.47;0.47;;;;;;;;;;1025420;28;20506;-72
2023/10/03 01:05:39;;;;;;;0.00;0.00;;;;;;;;;;1025463;28;20046;-73
2023/10/03 01:06:10;;;;;;;1.85;1.75;;;;;;;;;;1025854;28;20558;-73
2023/10/03 01:06:41;;;;;;;0.38;0.38;;;;;;;;;;1025848;28;20543;-72
2023/10/03 01:07:12;;;;;;;0.65;0.45;;;;;;;;;;1025719;28;20026;-74
2023/10/03 01:11:15;;;;;;;1.25;0.52;;;;;;;;;;1026147;28;20078;-74
2023/10/03 01:11:48;;;;;;;0.30;0.30;;;;;;;;;;1024683;28;20027;-74
2023/10/03 01:12:18;;;;;;;0.00;0.00;;;;;;;;;;1024911;28;20027;-74
2023/10/03 01:12:49;;;;;;;3.50;1.88;;;;;;;;;;1025785;28;20019;-74
2023/10/03 01:13:20;;;;;;;0.38;0.38;;;;;;;;;;1025611;28;20165;-74
2023/10/03 01:13:56;;;;;;;4.25;0.70;;;;;;;;;;1024907;28;20031;-74
2023/10/03 01:14:34;;;;;;;7.15;1.17;;;;;;;;;;1023969;28;20098;-73
2023/10/03 01:15:13;;;;;;;6.13;2.38;;;;;;;;;;1024439;28;20034;-75
2023/10/03 01:15:43;;;;;;;0.30;0.30;;;;;;;;;;1021053;28;20523;-72
2023/10/03 01:16:52;;;;;;;0.32;0.32;;;;;;;;;;1019825;29;20024;-72
2023/10/03 01:17:15;;;;;;;0.35;0.35;;;;;;;;;;1019033;29;20468;-73
2023/10/03 01:17:48;;;;;;;1.65;1.55;;;;;;;;;;1024774;28;20019;-73
2023/10/03 01:18:21;;;;;;;0.85;0.85;;;;;;;;;;1025663;28;20488;-73
2023/10/03 01:18:53;;;;;;;0.80;0.80;;;;;;;;;;1024767;28;20036;-73
2023/10/03 01:19:29;;;;;;;4.05;1.80;;;;;;;;;;1024770;28;20030;-73
2023/10/03 01:20:08;;;;;;;16.90;3.03;;;;;;;;;;1025357;28;20081;-74
2023/10/03 01:20:41;;;;;;;0.98;0.98;;;;;;;;;;1020241;29;20107;-74
2023/10/03 01:21:13;;;;;;;4.55;1.88;;;;;;;;;;1019258;29;20114;-74
2023/10/03 01:21:45;;;;;;;0.52;0.22;;;;;;;;;;1019656;29;20047;-73
2023/10/03 01:22:16;;;;;;;2.38;0.63;;;;;;;;;;1022167;28;20038;-73
2023/10/03 01:22:50;;;;;;;0.50;0.50;;;;;;;;;;1024797;28;20084;-73
2023/10/03 01:23:21;;;;;;;1.02;1.00;;;;;;;;;;1025153;28;20444;-73
2023/10/03 01:23:51;;;;;;;1.65;1.23;;;;;;;;;;1023813;28;20053;-73
2023/10/03 01:24:25;;;;;;;4.20;1.45;;;;;;;;;;1021474;28;20099;-73
2023/10/03 01:24:55;;;;;;;0.55;0.55;;;;;;;;;;1019286;29;20216;-73
2023/10/03 01:25:27;;;;;;;0.52;0.47;;;;;;;;;;1018620;29;20376;-73
2023/10/03 01:25:58;;;;;;;0.10;0.10;;;;;;;;;;1019569;28;20122;-73
2023/10/03 01:26:29;;;;;;;0.50;0.50;;;;;;;;;;1022200;28;20503;-73
2023/10/03 01:27:00;;;;;;;0.65;0.65;;;;;;;;;;1017483;29;20328;-73
2023/10/03 01:27:31;;;;;;;1.30;0.47;;;;;;;;;;1017795;29;20036;-74
2023/10/03 01:28:01;;;;;;;0.30;0.30;;;;;;;;;;1022069;29;20106;-74
2023/10/03 01:28:32;;;;;;;1.75;1.05;;;;;;;;;;1020444;29;20038;-72
2023/10/03 01:29:04;;;;;;;0.70;0.70;;;;;;;;;;1023246;28;20395;-73
2023/10/03 01:29:34;;;;;;;20.23;2.63;;;;;;;;;;1019612;29;21332;-72
2023/10/03 01:30:06;;;;;;;0.38;0.38;;;;;;;;;;1022842;29;20110;-73
2023/10/03 01:30:37;;;;;;;0.43;0.40;;;;;;;;;;1020187;28;20094;-73
2023/10/03 01:31:08;;;;;;;9.45;0.90;;;;;;;;;;1024772;28;20031;-73
2023/10/03 01:31:39;;;;;;;0.20;0.20;;;;;;;;;;1023534;28;20031;-74
2023/10/03 01:32:10;;;;;;;1.75;1.63;;;;;;;;;;1021850;29;20571;-73
2023/10/03 01:32:43;;;;;;;2.50;1.10;;;;;;;;;;1020154;28;20065;-73
2023/10/03 01:33:13;;;;;;;0.60;0.60;;;;;;;;;;1021187;28;20511;-73
2023/10/03 01:33:45;;;;;;;1.98;0.80;;;;;;;;;;1024783;28;20035;-74
2023/10/03 01:34:15;;;;;;;0.35;0.35;;;;;;;;;;1024123;28;20035;-73
2023/10/03 01:34:46;;;;;;;2.50;0.77;;;;;;;;;;1026444;28;20135;-74
2023/10/03 01:35:16;;;;;;;0.28;0.28;;;;;;;;;;1025386;28;20062;-73
2023/10/03 01:35:47;;;;;;;1.92;1.55;;;;;;;;;;1026501;28;20146;-73
2023/10/03 01:36:19;;;;;;;1.55;0.60;;;;;;;;;;1023298;28;20066;-73
2023/10/03 01:36:49;;;;;;;1.85;0.88;;;;;;;;;;1025596;28;20491;-74
2023/10/03 01:37:20;;;;;;;1.48;1.05;;;;;;;;;;1023815;28;20031;-74
2023/10/03 01:37:51;;;;;;;0.70;0.65;;;;;;;;;;1021427;29;20024;-74
2023/10/03 01:38:22;;;;;;;0.30;0.30;;;;;;;;;;1024153;28;20023;-74
2023/10/03 01:38:53;;;;;;;0.38;0.38;;;;;;;;;;1025975;28;20402;-74
2023/10/03 01:39:24;;;;;;;1.00;0.75;;;;;;;;;;1025653;28;20543;-72
2023/10/03 01:39:55;;;;;;;0.45;0.45;;;;;;;;;;1025811;28;20023;-73
2023/10/03 01:40:26;;;;;;;16.98;3.03;;;;;;;;;;1025454;28;20027;-73
2023/10/03 01:40:57;;;;;;;0.30;0.30;;;;;;;;;;1024941;28;20019;-73
2023/10/03 01:41:27;;;;;;;2.22;1.20;;;;;;;;;;1024613;28;20118;-73
2023/10/03 01:41:58;;;;;;;1.23;1.17;;;;;;;;;;1024088;28;20071;-72
2023/10/03 01:42:29;;;;;;;7.28;0.98;;;;;;;;;;1025045;28;20031;-71
2023/10/03 01:43:00;;;;;;;1.10;0.82;;;;;;;;;;1023624;28;20110;-72
2023/10/03 01:43:30;;;;;;;18.13;1.67;;;;;;;;;;1022795;29;20766;-72
2023/10/03 01:44:01;;;;;;;0.63;0.63;;;;;;;;;;1021059;29;20024;-72
2023/10/03 01:44:31;;;;;;;0.55;0.55;;;;;;;;;;1020988;28;20042;-72
2023/10/03 01:45:02;;;;;;;0.80;0.50;;;;;;;;;;1023598;28;20019;-73
2023/10/03 01:45:32;;;;;;;0.88;0.60;;;;;;;;;;1026323;28;20035;-72
2023/10/03 01:46:03;;;;;;;1.90;1.77;;;;;;;;;;1024560;28;20033;-72
2023/10/03 01:46:33;;;;;;;1.98;0.95;;;;;;;;;;1025626;28;20027;-72
2023/10/03 01:47:04;;;;;;;1.40;1.30;;;;;;;;;;1025072;28;20023;-72
2023/10/03 01:47:34;;;;;;;9.10;2.47;;;;;;;;;;1023145;28;20074;-72
2023/10/03 01:48:05;;;;;;;1.55;1.45;;;;;;;;;;1023207;28;20111;-72
2023/10/03 01:48:36;;;;;;;2.20;0.80;;;;;;;;;;1024126;28;20087;-72
2023/10/03 01:49:07;;;;;;;0.55;0.55;;;;;;;;;;1024375;28;20027;-72
2023/10/03 01:49:38;;;;;;;1.35;0.63;;;;;;;;;;1022664;29;20035;-72
2023/10/03 01:50:11;;;;;;;0.00;0.00;;;;;;;;;;1023228;28;20465;-72
2023/10/03 01:50:42;;;;;;;0.47;0.47;;;;;;;;;;1022158;29;20038;-72
2023/10/03 01:51:13;;;;;;;0.63;0.30;;;;;;;;;;1018290;29;20821;-72
2023/10/03 01:51:44;;;;;;;0.17;0.17;;;;;;;;;;1018848;29;20027;-73
2023/10/03 01:52:15;;;;;;;0.55;0.55;;;;;;;;;;1017236;29;20060;-73
2023/10/03 01:52:46;;;;;;;1.30;1.15;;;;;;;;;;1020324;29;20012;-73
2023/10/03 01:53:17;;;;;;;1.13;1.13;;;;;;;;;;1023099;28;20029;-73
2023/10/03 01:53:47;;;;;;;0.80;0.80;;;;;;;;;;1025171;28;20085;-73
2023/10/03 01:54:18;;;;;;;1.65;0.63;;;;;;;;;;1020814;29;20035;-73
2023/10/03 01:54:49;;;;;;;2.20;0.75;;;;;;;;;;1021877;29;20027;-73
2023/10/03 01:55:20;;;;;;;0.60;0.60;;;;;;;;;;1020648;28;20123;-72
2023/10/03 01:55:52;;;;;;;4.38;1.40;;;;;;;;;;1019334;28;20422;-74
2023/10/03 01:56:25;;;;;;;0.40;0.40;;;;;;;;;;1020970;28;20561;-73
2023/10/03 01:56:56;;;;;;;0.50;0.50;;;;;;;;;;1017483;29;20368;-73
2023/10/03 01:57:27;;;;;;;1.30;0.73;;;;;;;;;;1019044;29;20095;-73
2023/10/03 01:57:58;;;;;;;1.50;1.40;;;;;;;;;;1022681;28;20490;-73
2023/10/03 01:58:30;;;;;;;1.35;1.25;;;;;;;;;;1022025;28;20039;-73
2023/10/03 01:59:01;;;;;;;1.17;0.77;;;;;;;;;;1023036;29;20464;-73
2023/10/03 01:59:32;;;;;;;1.95;0.57;;;;;;;;;;1023003;29;20095;-73
2023/10/03 02:01:04;;;;;;;2.63;2.10;;;;;;;;;;1017319;29;20135;-72
2023/10/03 02:01:37;;;;;;;1.45;1.35;;;;;;;;;;1021260;29;20110;-72
2023/10/03 02:02:09;;;;;;;1.02;0.68;;;;;;;;;;1025270;28;20058;-72
2023/10/03 02:02:39;;;;;;;4.45;2.67;;;;;;;;;;1019082;29;20035;-71
2023/10/03 02:03:13;;;;;;;1.27;1.17;;;;;;;;;;1017476;29;20032;-71
2023/10/03 02:03:45;;;;;;;0.10;0.10;;;;;;;;;;1018221;29;20411;-72
2023/10/03 02:04:15;;;;;;;11.38;2.08;;;;;;;;;;1021180;28;20178;-72
2023/10/03 02:04:46;;;;;;;1.02;0.93;;;;;;;;;;1025728;28;20090;-72
2023/10/03 02:05:21;;;;;;;9.43;4.97;;;;;;;;;;1022343;28;20027;-72
2023/10/03 02:05:52;;;;;;;3.78;2.58;;;;;;;;;;1023675;28;20527;-72
2023/10/03 02:06:23;;;;;;;1.75;1.63;;;;;;;;;;1024518;28;20161;-72
2023/10/03 02:06:54;;;;;;;0.63;0.63;;;;;;;;;;1021636;29;20526;-72
2023/10/03 02:07:27;;;;;;;0.50;0.50;;;;;;;;;;1021274;28;20045;-72
2023/10/03 02:07:58;;;;;;;1.25;1.15;;;;;;;;;;1021439;28;20038;-72
2023/10/03 02:08:29;;;;;;;1.27;1.15;;;;;;;;;;1020663;28;20054;-73
2023/10/03 02:09:03;;;;;;;0.60;0.60;;;;;;;;;;1020834;29;20448;-73
2023/10/03 02:09:34;;;;;;;0.38;0.38;;;;;;;;;;1021183;29;20023;-72
2023/10/03 02:10:05;;;;;;;2.00;0.63;;;;;;;;;;1017718;29;20392;-72
2023/10/03 02:10:36;;;;;;;1.55;0.52;;;;;;;;;;1023869;28;20517;-73
2023/10/03 02:11:06;;;;;;;1.23;0.82;;;;;;;;;;1023135;28;20031;-73
2023/10/03 02:11:37;;;;;;;2.30;0.50;;;;;;;;;;1020197;29;20027;-73
2023/10/03 02:12:10;;;;;;;0.40;0.40;;;;;;;;;;1018568;29;21228;-72
2023/10/03 02:12:48;;;;;;;2.30;2.10;;;;;;;;;;1023793;28;20058;-72
2023/10/03 02:13:21;;;;;;;0.20;0.20;;;;;;;;;;1021735;28;20043;-72
2023/10/03 02:13:52;;;;;;;0.57;0.57;;;;;;;;;;1024852;28;20063;-72
2023/10/03 02:14:22;;;;;;;0.65;0.65;;;;;;;;;;1023985;28;20109;-72
2023/10/03 02:14:54;;;;;;;0.80;0.80;;;;;;;;;;1022518;29;20027;-72
2023/10/03 02:15:24;;;;;;;0.80;0.77;;;;;;;;;;1021638;28;20197;-73
2023/10/03 02:15:58;;;;;;;1.48;1.20;;;;;;;;;;1024345;28;20511;-73
2023/10/03 02:16:28;;;;;;;0.70;0.65;;;;;;;;;;1019937;29;20123;-73
2023/10/03 02:16:59;;;;;;;3.13;1.67;;;;;;;;;;1018690;29;20026;-73
2023/10/03 02:17:30;;;;;;;1.33;1.25;;;;;;;;;;1020602;29;20023;-72
2023/10/03 02:18:02;;;;;;;0.30;0.30;;;;;;;;;;1018902;28;20027;-73
2023/10/03 02:18:32;;;;;;;0.65;0.65;;;;;;;;;;1021694;28;20035;-72
2023/10/03 02:19:04;;;;;;;1.23;1.13;;;;;;;;;;1022734;28;20023;-73
2023/10/03 02:19:34;;;;;;;2.03;1.67;;;;;;;;;;1025117;28;20679;-73
2023/10/03 02:20:09;;;;;;;2.22;1.05;;;;;;;;;;1024918;28;20178;-72
2023/10/03 02:20:52;;;;;;;7.57;1.08;;;;;;;;;;1026084;28;20053;-73
2023/10/03 02:21:23;;;;;;;15.10;1.95;;;;;;;;;;1025748;28;20031;-73
2023/10/03 02:21:59;;;;;;;3.53;2.90;;;;;;;;;;1023398;29;20023;-72
2023/10/03 02:22:29;;;;;;;3.97;2.33;;;;;;;;;;1023600;28;20034;-72
2023/10/03 02:23:04;;;;;;;0.10;0.10;;;;;;;;;;1022558;29;20403;-74
2023/10/03 02:23:34;;;;;;;2.15;1.60;;;;;;;;;;1018118;29;20569;-74
2023/10/03 02:24:05;;;;;;;0.45;0.45;;;;;;;;;;1019757;29;20062;-74
2023/10/03 02:24:36;;;;;;;1.00;1.00;;;;;;;;;;1022296;29;20507;-73
2023/10/03 02:25:08;;;;;;;0.60;0.60;;;;;;;;;;1021744;28;20027;-71
2023/10/03 02:25:40;;;;;;;2.22;1.67;;;;;;;;;;1024704;28;20094;-72
2023/10/03 02:26:11;;;;;;;1.25;0.28;;;;;;;;;;1024541;28;20034;-72
2023/10/03 02:26:42;;;;;;;1.95;1.52;;;;;;;;;;1024573;28;20522;-72
2023/10/03 02:27:13;;;;;;;4.50;1.25;;;;;;;;;;1024670;28;20522;-73
2023/10/03 02:27:43;;;;;;;0.88;0.88;;;;;;;;;;1023372;28;20023;-73
2023/10/03 02:28:17;;;;;;;8.10;2.38;;;;;;;;;;1024534;28;20027;-72
2023/10/03 02:28:48;;;;;;;1.90;0.85;;;;;;;;;;1024117;28;20046;-72
2023/10/03 02:29:19;;;;;;;0.38;0.38;;;;;;;;;;1020997;29;20415;-73
2023/10/03 02:29:51;;;;;;;0.80;0.80;;;;;;;;;;1021861;28;20031;-72
2023/10/03 02:30:29;;;;;;;3.15;1.98;;;;;;;;;;1019459;29;20106;-72
2023/10/03 02:31:02;;;;;;;0.95;0.90;;;;;;;;;;1021612;28;20039;-73
2023/10/03 02:31:35;;;;;;;2.35;1.33;;;;;;;;;;1024322;28;20038;-73
2023/10/03 02:32:08;;;;;;;0.30;0.30;;;;;;;;;;1024606;28;20072;-72
2023/10/03 02:32:40;;;;;;;0.40;0.40;;;;;;;;;;1026240;28;20063;-74
2023/10/03 02:33:15;;;;;;;2.53;1.15;;;;;;;;;;1023409;28;20037;-73
2023/10/03 02:33:46;;;;;;;1.45;0.60;;;;;;;;;;1024715;28;20050;-73
2023/10/03 02:34:17;;;;;;;0.47;0.47;;;;;;;;;;1024146;28;20474;-73
2023/10/03 02:34:48;;;;;;;1.55;1.45;;;;;;;;;;1024454;28;20090;-72
2023/10/03 02:35:21;;;;;;;0.35;0.35;;;;;;;;;;1024238;28;20181;-72
2023/10/03 02:35:51;;;;;;;2.22;1.65;;;;;;;;;;1023135;28;20825;-72
2023/10/03 02:36:22;;;;;;;0.63;0.63;;;;;;;;;;1022133;28;20049;-71
2023/10/03 02:36:52;;;;;;;1.48;1.17;;;;;;;;;;1026286;28;20040;-73
2023/10/03 02:37:23;;;;;;;7.95;2.30;;;;;;;;;;1023824;28;20027;-72
2023/10/03 02:37:57;;;;;;;1.52;1.38;;;;;;;;;;1022171;28;20066;-74
2023/10/03 02:38:30;;;;;;;0.30;0.30;;;;;;;;;;1018702;28;20023;-71
2023/10/03 02:39:01;;;;;;;1.58;1.30;;;;;;;;;;1018967;28;20102;-72
2023/10/03 02:39:39;;;;;;;3.15;2.47;;;;;;;;;;1015528;29;20461;-74
2023/10/03 02:40:09;;;;;;;0.10;0.10;;;;;;;;;;1020005;29;20028;-73
2023/10/03 02:40:40;;;;;;;1.67;1.23;;;;;;;;;;1020608;28;20030;-74
2023/10/03 02:41:12;;;;;;;2.20;1.50;;;;;;;;;;1024144;28;20031;-74
2023/10/03 02:41:43;;;;;;;0.52;0.47;;;;;;;;;;1021632;28;20141;-73
2023/10/03 02:42:14;;;;;;;1.77;1.33;;;;;;;;;;1021643;29;20046;-73
2023/10/03 02:42:45;;;;;;;0.15;0.15;;;;;;;;;;1020474;29;20578;-73
2023/10/03 02:43:16;;;;;;;1.98;1.65;;;;;;;;;;1020008;29;20640;-75
2023/10/03 02:43:47;;;;;;;6.07;2.15;;;;;;;;;;1019758;28;20043;-76
2023/10/03 02:44:18;;;;;;;1.23;1.10;;;;;;;;;;1024459;28;20495;-74
2023/10/03 02:44:50;;;;;;;2.30;0.40;;;;;;;;;;1020760;28;20023;-73
2023/10/03 02:45:25;;;;;;;0.10;0.10;;;;;;;;;;1019886;29;20118;-74
2023/10/03 02:45:56;;;;;;;1.95;1.85;;;;;;;;;;1016606;29;20032;-72
2023/10/03 02:46:27;;;;;;;19.17;3.67;;;;;;;;;;1018701;29;20032;-72
2023/10/03 02:46:58;;;;;;;2.70;1.65;;;;;;;;;;1014610;29;20055;-73
2023/10/03 02:47:29;;;;;;;0.70;0.70;;;;;;;;;;1015397;29;20028;-73
2023/10/03 02:48:07;;;;;;;0.65;0.57;;;;;;;;;;1012646;29;20031;-73
2023/10/03 02:48:38;;;;;;;5.35;1.30;;;;;;;;;;1014700;29;20035;-73
2023/10/03 02:49:10;;;;;;;1.70;1.30;;;;;;;;;;1016305;29;20028;-74
2023/10/03 02:49:41;;;;;;;4.32;2.38;;;;;;;;;;1020370;28;20034;-73
2023/10/03 02:50:14;;;;;;;0.55;0.55;;;;;;;;;;1021625;28;20699;-73
2023/10/03 02:50:46;;;;;;;1.52;1.45;;;;;;;;;;1017137;29;20179;-73
2023/10/03 02:51:16;;;;;;;22.88;2.50;;;;;;;;;;1013280;29;20064;-74
2023/10/03 02:51:49;;;;;;;3.70;2.63;;;;;;;;;;1019285;29;20083;-73
2023/10/03 02:52:21;;;;;;;0.57;0.57;;;;;;;;;;1018394;29;20062;-73
2023/10/03 02:52:55;;;;;;;2.83;1.85;;;;;;;;;;1017316;29;20027;-73
2023/10/03 02:53:26;;;;;;;1.23;1.13;;;;;;;;;;1021458;28;20035;-74
2023/10/03 02:53:58;;;;;;;5.18;1.10;;;;;;;;;;1021854;29;20130;-74
2023/10/03 02:54:32;;;;;;;0.22;0.20;;;;;;;;;;1019152;29;20103;-73
2023/10/03 02:55:04;;;;;;;1.20;1.00;;;;;;;;;;1018411;29;20497;-74
2023/10/03 02:55:38;;;;;;;0.95;0.93;;;;;;;;;;1016230;29;20028;-74
2023/10/03 02:56:09;;;;;;;6.72;1.35;;;;;;;;;;1016981;29;20035;-74
2023/10/03 02:56:40;;;;;;;7.80;2.35;;;;;;;;;;1013503;29;20047;-73
2023/10/03 02:57:14;;;;;;;2.17;1.23;;;;;;;;;;1008683;29;20031;-74
2023/10/03 02:58:03;;;;;;;0.22;0.22;;;;;;;;;;1008906;29;20040;-74
2023/10/03 02:58:35;;;;;;;0.65;0.65;;;;;;;;;;1009954;29;20212;-73
2023/10/03 02:59:06;;;;;;;0.52;0.52;;;;;;;;;;1018807;29;20027;-74
2023/10/03 02:59:37;;;;;;;0.95;0.40;;;;;;;;;;1019920;28;20031;-74
2023/10/03 03:00:16;;;;;;;11.63;1.77;;;;;;;;;;1022383;28;20049;-73
2023/10/03 03:00:49;;;;;;;1.50;1.40;;;;;;;;;;1023957;28;20030;-73
2023/10/03 03:01:22;;;;;;;3.55;2.90;;;;;;;;;;1023078;28;20034;-74
2023/10/03 03:01:56;;;;;;;0.55;0.55;;;;;;;;;;1024903;28;20402;-75
2023/10/03 03:02:27;;;;;;;1.83;1.67;;;;;;;;;;1022143;28;20506;-74
2023/10/03 03:02:57;;;;;;;15.80;4.57;;;;;;;;;;1020455;29;20106;-74
2023/10/03 03:03:32;;;;;;;5.45;2.65;;;;;;;;;;1019444;29;20541;-74
2023/10/03 03:04:04;;;;;;;0.90;0.90;;;;;;;;;;1020285;28;20027;-73
2023/10/03 03:04:36;;;;;;;0.85;0.52;;;;;;;;;;1018765;28;20725;-72
2023/10/03 03:05:15;;;;;;;3.03;2.03;;;;;;;;;;1019748;28;20031;-74
2023/10/03 03:05:48;;;;;;;3.22;2.67;;;;;;;;;;1021750;29;20118;-74
2023/10/03 03:06:19;;;;;;;2.03;1.65;;;;;;;;;;1021425;28;20042;-75
2023/10/03 03:06:51;;;;;;;2.28;2.13;;;;;;;;;;1022104;28;20070;-74
2023/10/03 03:07:25;;;;;;;19.38;1.73;;;;;;;;;;1023325;28;20130;-75
2023/10/03 03:08:00;;;;;;;0.68;0.68;;;;;;;;;;1023092;28;20430;-73
2023/10/03 03:08:33;;;;;;;2.60;2.40;;;;;;;;;;1029153;28;20601;-73
2023/10/03 03:09:07;;;;;;;1.45;0.75;;;;;;;;;;1025719;28;20054;-73
2023/10/03 03:09:40;;;;;;;3.08;1.98;;;;;;;;;;1026885;28;20118;-73
2023/10/03 03:10:29;;;;;;;3.03;1.52;;;;;;;;;;1024978;28;20589;-74
2023/10/03 03:11:03;;;;;;;2.33;1.60;;;;;;;;;;1019417;28;20220;-74
2023/10/03 03:11:35;;;;;;;3.65;1.73;;;;;;;;;;1022657;28;20038;-75
2023/10/03 03:12:06;;;;;;;3.03;1.48;;;;;;;;;;1019919;28;20753;-74
2023/10/03 03:12:38;;;;;;;6.43;2.50;;;;;;;;;;1019373;28;20023;-74
2023/10/03 03:13:12;;;;;;;26.20;1.52;;;;;;;;;;1021345;28;20118;-76
2023/10/03 03:13:43;;;;;;;10.63;3.65;;;;;;;;;;1022067;29;20522;-72
2023/10/03 03:14:14;;;;;;;1.40;1.30;;;;;;;;;;1019130;28;20142;-75
2023/10/03 03:14:48;;;;;;;2.03;1.33;;;;;;;;;;1021009;28;20015;-77
2023/10/03 03:15:30;;;;;;;23.73;1.65;;;;;;;;;;1018576;29;20128;-76
2023/10/03 03:16:03;;;;;;;2.00;1.83;;;;;;;;;;1018286;29;20035;-74
2023/10/03 03:16:34;;;;;;;0.77;0.77;;;;;;;;;;1017260;29;20043;-75
2023/10/03 03:17:13;;;;;;;0.38;0.38;;;;;;;;;;1017666;28;20026;-75